sensor_id;sensor_type;location;lat;lon;timestamp;pressure;altitude;pressure_sealevel;temperature;humidity
15670;BME280;18524;45.190;5.732;2023-07-13T00:04:13;99089.22;;;25.23;100.00
15670;BME280;18524;45.190;5.732;2023-07-13T00:09:04;99086.75;;;25.21;100.00
15670;BME280;18524;45.190;5.732;2023-07-13T00:13:54;99088.06;;;25.12;100.00
15670;BME280;18524;45.190;5.732;2023-07-13T00:18:45;99094.47;;;25.11;100.00
15670;BME280;18524;45.190;5.732;2023-07-13T00:23:39;99092.47;;;25.32;100.00
15670;BME280;18524;45.190;5.732;2023-07-13T00:28:30;99092.41;;;25.38;100.00
15670;BME280;18524;45.190;5.732;2023-07-13T00:33:20;99095.78;;;25.27;100.00
15670;BME280;18524;45.190;5.732;2023-07-13T00:38:11;99108.81;;;25.30;100.00
15670;BME280;18524;45.190;5.732;2023-07-13T00:43:04;99121.00;;;25.26;100.00
15670;BME280;18524;45.190;5.732;2023-07-13T00:47:55;99133.22;;;25.22;100.00
15670;BME280;18524;45.190;5.732;2023-07-13T00:52:52;99136.94;;;25.21;100.00
15670;BME280;18524;45.190;5.732;2023-07-13T00:57:44;99148.78;;;25.13;100.00
15670;BME280;18524;45.190;5.732;2023-07-13T01:02:38;99148.38;;;25.10;100.00
15670;BME280;18524;45.190;5.732;2023-07-13T01:07:28;99144.09;;;25.02;100.00
15670;BME280;18524;45.190;5.732;2023-07-13T01:12:19;99142.25;;;24.96;100.00
15670;BME280;18524;45.190;5.732;2023-07-13T01:17:10;99140.16;;;25.05;100.00
15670;BME280;18524;45.190;5.732;2023-07-13T01:22:02;99131.47;;;25.09;100.00
15670;BME280;18524;45.190;5.732;2023-07-13T01:26:53;99122.19;;;25.05;100.00
15670;BME280;18524;45.190;5.732;2023-07-13T01:31:43;99118.91;;;25.03;100.00
15670;BME280;18524;45.190;5.732;2023-07-13T01:36:34;99126.97;;;24.97;98.69
15670;BME280;18524;45.190;5.732;2023-07-13T01:41:26;99129.50;;;24.91;97.25
15670;BME280;18524;45.190;5.732;2023-07-13T01:46:16;99135.91;;;24.90;98.29
15670;BME280;18524;45.190;5.732;2023-07-13T01:51:06;99136.97;;;24.83;96.03
15670;BME280;18524;45.190;5.732;2023-07-13T01:55:57;99136.97;;;24.83;96.52
15670;BME280;18524;45.190;5.732;2023-07-13T02:00:48;99138.22;;;24.80;95.05
15670;BME280;18524;45.190;5.732;2023-07-13T02:05:40;99134.38;;;24.70;96.58
15670;BME280;18524;45.190;5.732;2023-07-13T02:10:30;99135.31;;;24.82;94.80
15670;BME280;18524;45.190;5.732;2023-07-13T02:15:20;99135.78;;;24.72;95.42
15670;BME280;18524;45.190;5.732;2023-07-13T02:20:11;99136.09;;;24.57;96.94
15670;BME280;18524;45.190;5.732;2023-07-13T02:25:01;99138.34;;;24.60;96.17
15670;BME280;18524;45.190;5.732;2023-07-13T02:29:52;99143.31;;;24.50;96.06
15670;BME280;18524;45.190;5.732;2023-07-13T02:34:43;99142.13;;;24.40;97.01
15670;BME280;18524;45.190;5.732;2023-07-13T02:39:34;99145.41;;;24.42;95.72
15670;BME280;18524;45.190;5.732;2023-07-13T02:44:24;99142.97;;;24.40;98.00
15670;BME280;18524;45.190;5.732;2023-07-13T02:49:14;99140.13;;;24.28;98.48
15670;BME280;18524;45.190;5.732;2023-07-13T02:54:05;99143.84;;;24.14;97.58
15670;BME280;18524;45.190;5.732;2023-07-13T02:58:56;99140.13;;;24.15;97.31
15670;BME280;18524;45.190;5.732;2023-07-13T03:03:50;99143.50;;;23.91;98.89
15670;BME280;18524;45.190;5.732;2023-07-13T03:08:41;99138.72;;;23.99;99.11
15670;BME280;18524;45.190;5.732;2023-07-13T03:13:31;99153.38;;;23.97;98.68
15670;BME280;18524;45.190;5.732;2023-07-13T03:18:22;99156.25;;;23.95;98.96
15670;BME280;18524;45.190;5.732;2023-07-13T03:23:12;99153.59;;;23.89;99.02
15670;BME280;18524;45.190;5.732;2023-07-13T03:28:03;99160.00;;;23.88;98.98
15670;BME280;18524;45.190;5.732;2023-07-13T03:32:54;99160.63;;;23.83;98.83
15670;BME280;18524;45.190;5.732;2023-07-13T03:37:45;99178.94;;;23.86;98.25
15670;BME280;18524;45.190;5.732;2023-07-13T03:42:35;99178.75;;;23.81;99.48
15670;BME280;18524;45.190;5.732;2023-07-13T03:47:26;99182.84;;;23.77;99.74
15670;BME280;18524;45.190;5.732;2023-07-13T03:52:16;99177.53;;;23.57;99.94
15670;BME280;18524;45.190;5.732;2023-07-13T03:57:08;99184.72;;;23.70;98.17
15670;BME280;18524;45.190;5.732;2023-07-13T04:02:01;99183.28;;;23.61;97.38
15670;BME280;18524;45.190;5.732;2023-07-13T04:06:52;99184.72;;;23.63;95.96
15670;BME280;18524;45.190;5.732;2023-07-13T04:11:43;99190.50;;;23.67;94.91
15670;BME280;18524;45.190;5.732;2023-07-13T04:16:33;99198.75;;;23.59;95.68
15670;BME280;18524;45.190;5.732;2023-07-13T04:21:24;99203.25;;;23.65;94.98
15670;BME280;18524;45.190;5.732;2023-07-13T04:26:14;99212.34;;;23.84;92.55
15670;BME280;18524;45.190;5.732;2023-07-13T04:31:04;99213.97;;;23.98;87.65
15670;BME280;18524;45.190;5.732;2023-07-13T04:35:55;99217.25;;;24.00;82.47
15670;BME280;18524;45.190;5.732;2023-07-13T04:40:49;99226.75;;;23.83;83.36
15670;BME280;18524;45.190;5.732;2023-07-13T04:45:40;99249.63;;;23.65;81.51
15670;BME280;18524;45.190;5.732;2023-07-13T04:50:30;99250.00;;;23.43;82.47
15670;BME280;18524;45.190;5.732;2023-07-13T04:55:21;99240.88;;;23.30;83.76
15670;BME280;18524;45.190;5.732;2023-07-13T05:00:12;99253.25;;;23.31;85.28
15670;BME280;18524;45.190;5.732;2023-07-13T05:05:03;99258.22;;;23.48;84.09
15670;BME280;18524;45.190;5.732;2023-07-13T05:09:53;99264.19;;;23.43;84.69
15670;BME280;18524;45.190;5.732;2023-07-13T05:14:44;99283.97;;;23.49;84.00
15670;BME280;18524;45.190;5.732;2023-07-13T05:19:35;99280.63;;;23.33;83.86
15670;BME280;18524;45.190;5.732;2023-07-13T05:24:25;99290.09;;;23.29;82.92
15670;BME280;18524;45.190;5.732;2023-07-13T05:29:16;99294.16;;;23.05;86.10
15670;BME280;18524;45.190;5.732;2023-07-13T05:34:06;99292.09;;;23.07;85.95
15670;BME280;18524;45.190;5.732;2023-07-13T05:38:57;99292.44;;;22.91;88.25
15670;BME280;18524;45.190;5.732;2023-07-13T05:48:38;99301.84;;;22.81;87.66
15670;BME280;18524;45.190;5.732;2023-07-13T05:53:28;99311.53;;;22.82;89.54
15670;BME280;18524;45.190;5.732;2023-07-13T05:58:19;99306.31;;;22.73;91.28
15670;BME280;18524;45.190;5.732;2023-07-13T06:03:09;99309.63;;;22.75;90.95
15670;BME280;18524;45.190;5.732;2023-07-13T06:08:00;99318.38;;;22.63;91.51
15670;BME280;18524;45.190;5.732;2023-07-13T06:12:50;99339.44;;;22.72;90.96
15670;BME280;18524;45.190;5.732;2023-07-13T06:17:41;99345.69;;;22.58;92.91
15670;BME280;18524;45.190;5.732;2023-07-13T06:22:31;99351.03;;;22.58;92.74
15670;BME280;18524;45.190;5.732;2023-07-13T06:27:21;99346.19;;;22.68;92.00
15670;BME280;18524;45.190;5.732;2023-07-13T06:37:02;99356.22;;;22.94;90.83
15670;BME280;18524;45.190;5.732;2023-07-13T06:41:52;99357.63;;;23.31;90.85
15670;BME280;18524;45.190;5.732;2023-07-13T06:46:43;99365.06;;;24.23;84.85
15670;BME280;18524;45.190;5.732;2023-07-13T06:51:33;99375.78;;;24.70;78.77
15670;BME280;18524;45.190;5.732;2023-07-13T06:56:23;99370.19;;;24.91;77.27
15670;BME280;18524;45.190;5.732;2023-07-13T07:01:14;99378.41;;;24.96;78.15
15670;BME280;18524;45.190;5.732;2023-07-13T07:06:20;99355.06;;;25.10;74.39
15670;BME280;18524;45.190;5.732;2023-07-13T07:11:20;99358.59;;;24.97;76.34
15670;BME280;18524;45.190;5.732;2023-07-13T07:16:12;99366.25;;;25.00;77.78
15670;BME280;18524;45.190;5.732;2023-07-13T07:21:03;99360.03;;;25.06;78.02
15670;BME280;18524;45.190;5.732;2023-07-13T07:25:53;99368.66;;;25.15;76.80
15670;BME280;18524;45.190;5.732;2023-07-13T07:30:45;99373.19;;;25.28;78.49
15670;BME280;18524;45.190;5.732;2023-07-13T07:35:35;99378.56;;;25.72;76.19
15670;BME280;18524;45.190;5.732;2023-07-13T07:40:26;99387.88;;;26.58;71.21
15670;BME280;18524;45.190;5.732;2023-07-13T07:45:16;99381.84;;;27.24;66.66
15670;BME280;18524;45.190;5.732;2023-07-13T07:50:07;99390.41;;;27.32;65.19
15670;BME280;18524;45.190;5.732;2023-07-13T07:54:57;99397.84;;;27.19;65.47
15670;BME280;18524;45.190;5.732;2023-07-13T07:59:48;99382.28;;;27.21;64.64
15670;BME280;18524;45.190;5.732;2023-07-13T08:04:38;99377.94;;;27.01;66.15
15670;BME280;18524;45.190;5.732;2023-07-13T08:09:28;99388.47;;;27.03;68.30
15670;BME280;18524;45.190;5.732;2023-07-13T08:14:19;99370.09;;;27.48;64.93
15670;BME280;18524;45.190;5.732;2023-07-13T08:19:09;99372.31;;;27.88;63.50
15670;BME280;18524;45.190;5.732;2023-07-13T08:24:01;99367.13;;;28.98;58.52
15670;BME280;18524;45.190;5.732;2023-07-13T08:28:51;99357.00;;;29.85;54.79
15670;BME280;18524;45.190;5.732;2023-07-13T08:33:42;99368.94;;;30.35;51.84
15670;BME280;18524;45.190;5.732;2023-07-13T08:38:33;99360.50;;;30.14;52.31
15670;BME280;18524;45.190;5.732;2023-07-13T08:43:28;99366.81;;;30.20;51.56
15670;BME280;18524;45.190;5.732;2023-07-13T08:48:26;99363.63;;;29.78;54.59
15670;BME280;18524;45.190;5.732;2023-07-13T08:53:17;99366.31;;;29.49;56.42
15670;BME280;18524;45.190;5.732;2023-07-13T08:58:14;99358.13;;;29.44;57.18
15670;BME280;18524;45.190;5.732;2023-07-13T09:03:12;99362.31;;;29.52;57.17
15670;BME280;18524;45.190;5.732;2023-07-13T09:23:20;99367.41;;;30.94;52.76
15670;BME280;18524;45.190;5.732;2023-07-13T09:33:04;99367.91;;;32.11;46.96
15670;BME280;18524;45.190;5.732;2023-07-13T09:38:01;99372.78;;;32.09;44.83
15670;BME280;18524;45.190;5.732;2023-07-13T09:42:54;99374.38;;;31.78;45.35
15670;BME280;18524;45.190;5.732;2023-07-13T09:47:46;99370.16;;;31.92;44.68
15670;BME280;18524;45.190;5.732;2023-07-13T09:52:48;99381.78;;;32.46;43.04
15670;BME280;18524;45.190;5.732;2023-07-13T09:57:47;99384.56;;;32.93;42.14
15670;BME280;18524;45.190;5.732;2023-07-13T10:02:38;99380.97;;;32.83;41.94
15670;BME280;18524;45.190;5.732;2023-07-13T10:07:30;99377.34;;;33.14;40.42
15670;BME280;18524;45.190;5.732;2023-07-13T10:12:21;99374.59;;;33.09;40.41
15670;BME280;18524;45.190;5.732;2023-07-13T10:17:14;99372.38;;;33.06;39.92
15670;BME280;18524;45.190;5.732;2023-07-13T10:22:27;99377.16;;;33.31;39.30
15670;BME280;18524;45.190;5.732;2023-07-13T10:27:23;99382.88;;;33.40;38.63
15670;BME280;18524;45.190;5.732;2023-07-13T10:32:24;99383.50;;;33.57;38.47
15670;BME280;18524;45.190;5.732;2023-07-13T10:37:26;99377.53;;;33.75;37.25
15670;BME280;18524;45.190;5.732;2023-07-13T10:42:28;99373.44;;;33.63;37.62
15670;BME280;18524;45.190;5.732;2023-07-13T10:47:19;99381.16;;;34.01;35.96
15670;BME280;18524;45.190;5.732;2023-07-13T10:57:41;99378.41;;;33.91;35.57
15670;BME280;18524;45.190;5.732;2023-07-13T11:02:32;99365.63;;;34.02;35.32
15670;BME280;18524;45.190;5.732;2023-07-13T11:07:28;99352.03;;;34.27;34.48
15670;BME280;18524;45.190;5.732;2023-07-13T11:22:23;99337.19;;;34.99;33.58
15670;BME280;18524;45.190;5.732;2023-07-13T11:32:24;99336.41;;;34.84;32.29
15670;BME280;18524;45.190;5.732;2023-07-13T11:37:18;99319.78;;;34.80;33.25
15670;BME280;18524;45.190;5.732;2023-07-13T11:42:13;99313.47;;;35.00;32.08
15670;BME280;18524;45.190;5.732;2023-07-13T11:47:24;99314.16;;;35.21;32.63
15670;BME280;18524;45.190;5.732;2023-07-13T11:52:20;99303.22;;;35.36;32.37
15670;BME280;18524;45.190;5.732;2023-07-13T11:57:21;99305.06;;;35.46;32.13
15670;BME280;18524;45.190;5.732;2023-07-13T12:02:34;99308.72;;;35.70;31.92
15670;BME280;18524;45.190;5.732;2023-07-13T12:07:29;99307.06;;;35.74;31.02
15670;BME280;18524;45.190;5.732;2023-07-13T12:12:22;99302.75;;;36.02;29.85
15670;BME280;18524;45.190;5.732;2023-07-13T12:17:18;99292.34;;;36.04;30.27
15670;BME280;18524;45.190;5.732;2023-07-13T12:22:12;99266.59;;;36.15;30.19
15670;BME280;18524;45.190;5.732;2023-07-13T12:27:04;99269.53;;;36.48;28.83
15670;BME280;18524;45.190;5.732;2023-07-13T12:31:55;99261.81;;;36.26;28.99
15670;BME280;18524;45.190;5.732;2023-07-13T12:36:49;99277.09;;;36.27;29.35
15670;BME280;18524;45.190;5.732;2023-07-13T12:41:40;99279.66;;;35.89;29.48
15670;BME280;18524;45.190;5.732;2023-07-13T12:46:30;99280.28;;;36.10;29.33
15670;BME280;18524;45.190;5.732;2023-07-13T12:51:24;99274.94;;;36.24;28.49
15670;BME280;18524;45.190;5.732;2023-07-13T12:56:21;99259.16;;;35.92;28.42
15670;BME280;18524;45.190;5.732;2023-07-13T13:01:13;99267.50;;;35.71;29.23
15670;BME280;18524;45.190;5.732;2023-07-13T13:06:20;99272.28;;;35.90;28.17
15670;BME280;18524;45.190;5.732;2023-07-13T13:11:12;99264.72;;;35.82;27.89
15670;BME280;18524;45.190;5.732;2023-07-13T13:16:20;99268.25;;;35.77;27.72
15670;BME280;18524;45.190;5.732;2023-07-13T13:21:12;99260.94;;;35.72;27.87
15670;BME280;18524;45.190;5.732;2023-07-13T13:26:03;99265.31;;;35.74;27.79
15670;BME280;18524;45.190;5.732;2023-07-13T13:30:53;99259.56;;;35.31;27.83
15670;BME280;18524;45.190;5.732;2023-07-13T13:35:44;99264.75;;;35.27;28.34
15670;BME280;18524;45.190;5.732;2023-07-13T13:40:34;99271.34;;;35.21;28.39
15670;BME280;18524;45.190;5.732;2023-07-13T13:45:24;99256.84;;;35.36;28.02
15670;BME280;18524;45.190;5.732;2023-07-13T13:50:17;99247.03;;;35.35;28.38
15670;BME280;18524;45.190;5.732;2023-07-13T13:55:18;99241.28;;;34.87;28.71
15670;BME280;18524;45.190;5.732;2023-07-13T14:00:10;99239.59;;;34.96;28.31
15670;BME280;18524;45.190;5.732;2023-07-13T14:05:12;99244.63;;;34.64;28.34
15670;BME280;18524;45.190;5.732;2023-07-13T14:10:11;99263.19;;;34.46;29.11
15670;BME280;18524;45.190;5.732;2023-07-13T14:15:02;99254.81;;;34.02;28.71
15670;BME280;18524;45.190;5.732;2023-07-13T14:19:53;99252.94;;;33.88;29.17
15670;BME280;18524;45.190;5.732;2023-07-13T14:24:52;99253.19;;;33.71;29.87
15670;BME280;18524;45.190;5.732;2023-07-13T14:29:43;99255.06;;;33.35;29.95
15670;BME280;18524;45.190;5.732;2023-07-13T14:34:33;99246.78;;;32.94;31.39
15670;BME280;18524;45.190;5.732;2023-07-13T14:39:24;99238.47;;;32.63;30.97
15670;BME280;18524;45.190;5.732;2023-07-13T14:44:16;99232.47;;;32.51;30.38
15670;BME280;18524;45.190;5.732;2023-07-13T14:54:10;99243.09;;;31.79;31.62
15670;BME280;18524;45.190;5.732;2023-07-13T14:59:01;99244.81;;;31.31;33.48
15670;BME280;18524;45.190;5.732;2023-07-13T15:03:52;99237.03;;;31.39;33.28
15670;BME280;18524;45.190;5.732;2023-07-13T15:08:42;99239.69;;;31.34;32.33
15670;BME280;18524;45.190;5.732;2023-07-13T15:13:33;99248.59;;;31.30;32.16
15670;BME280;18524;45.190;5.732;2023-07-13T15:18:25;99232.56;;;31.01;32.48
15670;BME280;18524;45.190;5.732;2023-07-13T15:23:18;99242.28;;;30.75;33.03
15670;BME280;18524;45.190;5.732;2023-07-13T15:28:08;99232.50;;;30.74;32.19
15670;BME280;18524;45.190;5.732;2023-07-13T15:33:05;99231.16;;;30.55;32.59
15670;BME280;18524;45.190;5.732;2023-07-13T15:37:59;99226.81;;;30.54;32.66
15670;BME280;18524;45.190;5.732;2023-07-13T15:42:49;99228.19;;;30.35;33.09
15670;BME280;18524;45.190;5.732;2023-07-13T15:47:39;99231.38;;;30.32;33.66
15670;BME280;18524;45.190;5.732;2023-07-13T15:52:31;99221.44;;;30.15;33.20
15670;BME280;18524;45.190;5.732;2023-07-13T15:57:22;99218.63;;;30.10;32.84
15670;BME280;18524;45.190;5.732;2023-07-13T16:02:20;99217.56;;;29.95;32.86
15670;BME280;18524;45.190;5.732;2023-07-13T16:07:11;99230.28;;;29.94;32.90
15670;BME280;18524;45.190;5.732;2023-07-13T16:12:08;99228.72;;;29.65;32.73
15670;BME280;18524;45.190;5.732;2023-07-13T16:17:00;99237.81;;;29.59;32.70
15670;BME280;18524;45.190;5.732;2023-07-13T16:21:50;99227.75;;;29.54;33.14
15670;BME280;18524;45.190;5.732;2023-07-13T16:26:41;99225.38;;;29.29;34.15
15670;BME280;18524;45.190;5.732;2023-07-13T16:31:34;99235.44;;;29.34;33.88
15670;BME280;18524;45.190;5.732;2023-07-13T16:36:25;99229.81;;;29.35;33.38
15670;BME280;18524;45.190;5.732;2023-07-13T16:41:16;99233.63;;;29.22;33.17
15670;BME280;18524;45.190;5.732;2023-07-13T16:46:10;99236.66;;;29.26;33.46
15670;BME280;18524;45.190;5.732;2023-07-13T16:51:01;99230.84;;;29.17;33.20
15670;BME280;18524;45.190;5.732;2023-07-13T16:55:55;99219.47;;;29.15;33.01
15670;BME280;18524;45.190;5.732;2023-07-13T17:00:46;99245.91;;;29.13;33.53
15670;BME280;18524;45.190;5.732;2023-07-13T17:05:40;99240.16;;;29.10;33.72
15670;BME280;18524;45.190;5.732;2023-07-13T17:10:32;99242.69;;;29.00;33.67
15670;BME280;18524;45.190;5.732;2023-07-13T17:15:23;99232.47;;;28.90;33.51
15670;BME280;18524;45.190;5.732;2023-07-13T17:20:23;99211.72;;;28.79;33.94
15670;BME280;18524;45.190;5.732;2023-07-13T17:25:17;99223.81;;;28.76;33.88
15670;BME280;18524;45.190;5.732;2023-07-13T17:30:20;99213.59;;;28.78;34.35
15670;BME280;18524;45.190;5.732;2023-07-13T17:40:14;99212.19;;;28.36;35.16
15670;BME280;18524;45.190;5.732;2023-07-13T17:45:08;99215.47;;;28.26;36.01
15670;BME280;18524;45.190;5.732;2023-07-13T17:50:01;99217.34;;;28.25;35.62
15670;BME280;18524;45.190;5.732;2023-07-13T17:54:53;99214.41;;;28.03;36.18
15670;BME280;18524;45.190;5.732;2023-07-13T17:59:43;99215.47;;;27.91;36.48
15670;BME280;18524;45.190;5.732;2023-07-13T18:04:34;99207.22;;;27.86;36.58
15670;BME280;18524;45.190;5.732;2023-07-13T18:09:27;99209.47;;;27.77;36.84
15670;BME280;18524;45.190;5.732;2023-07-13T18:14:19;99212.97;;;27.78;36.64
15670;BME280;18524;45.190;5.732;2023-07-13T18:19:40;99217.78;;;27.64;36.54
15670;BME280;18524;45.190;5.732;2023-07-13T18:24:31;99202.53;;;27.69;36.88
15670;BME280;18524;45.190;5.732;2023-07-13T18:29:22;99198.91;;;27.64;36.64
15670;BME280;18524;45.190;5.732;2023-07-13T18:34:13;99206.50;;;27.55;37.77
15670;BME280;18524;45.190;5.732;2023-07-13T18:39:07;99205.22;;;27.58;37.51
15670;BME280;18524;45.190;5.732;2023-07-13T18:43:59;99198.59;;;27.42;37.33
15670;BME280;18524;45.190;5.732;2023-07-13T18:48:51;99207.50;;;27.42;37.29
15670;BME280;18524;45.190;5.732;2023-07-13T18:53:42;99211.09;;;27.25;37.27
15670;BME280;18524;45.190;5.732;2023-07-13T18:58:33;99202.75;;;27.15;37.23
15670;BME280;18524;45.190;5.732;2023-07-13T19:03:28;99212.72;;;26.96;37.88
15670;BME280;18524;45.190;5.732;2023-07-13T19:08:22;99207.75;;;26.81;38.20
15670;BME280;18524;45.190;5.732;2023-07-13T19:13:18;99207.59;;;26.76;38.21
15670;BME280;18524;45.190;5.732;2023-07-13T19:18:17;99204.81;;;26.83;37.88
15670;BME280;18524;45.190;5.732;2023-07-13T19:33:15;99223.16;;;26.56;38.80
15670;BME280;18524;45.190;5.732;2023-07-13T19:38:08;99219.72;;;26.48;39.29
15670;BME280;18524;45.190;5.732;2023-07-13T19:42:58;99222.97;;;26.32;39.87
15670;BME280;18524;45.190;5.732;2023-07-13T19:47:49;99230.44;;;26.30;40.25
15670;BME280;18524;45.190;5.732;2023-07-13T19:52:44;99241.72;;;26.21;40.29
15670;BME280;18524;45.190;5.732;2023-07-13T19:57:34;99246.56;;;26.12;41.23
15670;BME280;18524;45.190;5.732;2023-07-13T20:02:26;99250.44;;;26.16;41.15
15670;BME280;18524;45.190;5.732;2023-07-13T20:07:21;99257.81;;;26.02;41.21
15670;BME280;18524;45.190;5.732;2023-07-13T20:12:13;99268.66;;;25.89;41.55
15670;BME280;18524;45.190;5.732;2023-07-13T20:17:22;99274.66;;;25.91;41.34
15670;BME280;18524;45.190;5.732;2023-07-13T20:22:14;99283.38;;;25.86;41.74
15670;BME280;18524;45.190;5.732;2023-07-13T20:27:04;99290.84;;;25.84;41.43
15670;BME280;18524;45.190;5.732;2023-07-13T20:31:55;99294.66;;;25.70;41.70
15670;BME280;18524;45.190;5.732;2023-07-13T20:36:49;99295.00;;;25.80;41.54
15670;BME280;18524;45.190;5.732;2023-07-13T20:41:39;99301.53;;;25.66;41.82
15670;BME280;18524;45.190;5.732;2023-07-13T20:46:30;99305.00;;;25.60;42.46
15670;BME280;18524;45.190;5.732;2023-07-13T20:51:21;99295.53;;;25.58;41.72
15670;BME280;18524;45.190;5.732;2023-07-13T20:56:15;99298.53;;;25.43;42.27
15670;BME280;18524;45.190;5.732;2023-07-13T21:01:08;99288.38;;;25.45;41.98
15670;BME280;18524;45.190;5.732;2023-07-13T21:06:18;99294.84;;;25.37;42.18
15670;BME280;18524;45.190;5.732;2023-07-13T21:11:09;99304.75;;;25.37;42.47
15670;BME280;18524;45.190;5.732;2023-07-13T21:16:01;99303.56;;;25.33;43.74
15670;BME280;18524;45.190;5.732;2023-07-13T21:21:00;99310.44;;;25.15;43.43
15670;BME280;18524;45.190;5.732;2023-07-13T21:25:50;99306.50;;;25.18;43.99
15670;BME280;18524;45.190;5.732;2023-07-13T21:30:41;99310.03;;;25.12;44.93
15670;BME280;18524;45.190;5.732;2023-07-13T21:35:33;99305.31;;;25.07;46.13
15670;BME280;18524;45.190;5.732;2023-07-13T21:40:30;99306.56;;;25.05;48.27
15670;BME280;18524;45.190;5.732;2023-07-13T21:45:24;99313.00;;;24.90;49.13
15670;BME280;18524;45.190;5.732;2023-07-13T21:50:14;99312.56;;;24.87;50.06
15670;BME280;18524;45.190;5.732;2023-07-13T21:55:16;99313.50;;;24.54;51.71
15670;BME280;18524;45.190;5.732;2023-07-13T22:00:16;99319.53;;;24.30;53.83
15670;BME280;18524;45.190;5.732;2023-07-13T22:05:15;99318.03;;;24.08;55.41
15670;BME280;18524;45.190;5.732;2023-07-13T22:10:21;99314.34;;;24.09;56.11
15670;BME280;18524;45.190;5.732;2023-07-13T22:15:11;99316.19;;;24.21;56.37
15670;BME280;18524;45.190;5.732;2023-07-13T22:20:02;99308.56;;;24.12;57.43
15670;BME280;18524;45.190;5.732;2023-07-13T22:24:56;99315.16;;;24.16;57.91
15670;BME280;18524;45.190;5.732;2023-07-13T22:29:46;99310.41;;;24.11;57.91
15670;BME280;18524;45.190;5.732;2023-07-13T22:34:36;99330.81;;;24.06;59.05
15670;BME280;18524;45.190;5.732;2023-07-13T22:39:28;99328.13;;;24.06;59.31
15670;BME280;18524;45.190;5.732;2023-07-13T22:44:23;99332.06;;;23.96;57.45
15670;BME280;18524;45.190;5.732;2023-07-13T22:49:19;99331.00;;;23.71;59.46
15670;BME280;18524;45.190;5.732;2023-07-13T22:54:10;99330.16;;;23.64;60.55
15670;BME280;18524;45.190;5.732;2023-07-13T22:59:00;99317.59;;;23.71;61.78
15670;BME280;18524;45.190;5.732;2023-07-13T23:03:52;99318.22;;;23.60;61.78
15670;BME280;18524;45.190;5.732;2023-07-13T23:08:43;99323.56;;;23.60;61.18
15670;BME280;18524;45.190;5.732;2023-07-13T23:13:34;99326.44;;;23.58;58.82
15670;BME280;18524;45.190;5.732;2023-07-13T23:18:24;99337.53;;;23.49;57.58
15670;BME280;18524;45.190;5.732;2023-07-13T23:23:17;99329.44;;;23.35;58.36
15670;BME280;18524;45.190;5.732;2023-07-13T23:28:08;99328.81;;;23.33;59.01
15670;BME280;18524;45.190;5.732;2023-07-13T23:33:09;99328.59;;;23.28;59.29
15670;BME280;18524;45.190;5.732;2023-07-13T23:38:02;99334.56;;;23.30;59.19
15670;BME280;18524;45.190;5.732;2023-07-13T23:42:53;99324.66;;;23.24;57.82
15670;BME280;18524;45.190;5.732;2023-07-13T23:47:46;99331.88;;;23.30;58.20
15670;BME280;18524;45.190;5.732;2023-07-13T23:52:37;99316.63;;;23.18;59.22
15670;BME280;18524;45.190;5.732;2023-07-13T23:57:27;99324.41;;;23.06;63.47
